Time;durP1;ratioP1;P1;durP2;ratioP2;P2;SDS_P1;SDS_P2;PMS_P1;PMS_P2;Temp;Humidity;BMP_temperature;BMP_pressure;BME280_temperature;BME280_humidity;BME280_pressure;Samples;Min_cycle;Max_cycle;Signal;HPM_P1;HPM_P2
2021/01/27 00:00:20;;;;;;;2.25;1.00;;;20.60;40.40;;;;;;4987591;28;20726;-46
2021/01/27 00:02:46;;;;;;;1.73;0.90;;;20.60;40.40;;;;;;4990541;28;20403;-48
2021/01/27 00:05:17;;;;;;;1.63;0.95;;;20.60;40.40;;;;;;4988598;28;20027;-46
2021/01/27 00:07:46;;;;;;;2.95;1.00;;;20.60;40.40;;;;;;4990741;28;20023;-47
2021/01/27 00:10:13;;;;;;;3.10;1.10;;;20.60;40.30;;;;;;4972899;28;20087;-45
2021/01/27 00:12:39;;;;;;;2.45;1.00;;;20.60;40.30;;;;;;4990522;28;20387;-46
2021/01/27 00:15:09;;;;;;;1.52;0.98;;;20.70;40.40;;;;;;4993028;28;20035;-45
2021/01/27 00:17:35;;;;;;;3.55;0.95;;;20.60;40.30;;;;;;4992250;28;20028;-46
2021/01/27 00:20:00;;;;;;;2.58;0.80;;;20.60;40.30;;;;;;4990677;28;20027;-46
2021/01/27 00:22:26;;;;;;;1.92;0.90;;;20.60;40.30;;;;;;4973083;28;20030;-48
2021/01/27 00:24:51;;;;;;;1.80;0.93;;;20.60;40.30;;;;;;4990217;28;20072;-45
2021/01/27 00:27:17;;;;;;;1.75;1.00;;;20.60;40.20;;;;;;4991259;28;20029;-45
2021/01/27 00:29:43;;;;;;;1.08;0.70;;;20.60;40.30;;;;;;4991766;28;20083;-46
2021/01/27 00:32:08;;;;;;;1.33;0.98;;;20.60;40.20;;;;;;4991093;28;20066;-45
2021/01/27 00:34:34;;;;;;;2.35;1.17;;;20.60;40.30;;;;;;4991017;28;20054;-46
2021/01/27 00:36:59;;;;;;;2.38;1.10;;;20.60;40.30;;;;;;4989685;28;20402;-55
2021/01/27 00:39:25;;;;;;;1.40;0.77;;;20.60;40.20;;;;;;4994350;28;20039;-50
2021/01/27 00:41:51;;;;;;;1.63;1.10;;;20.60;40.20;;;;;;4995413;28;20030;-49
2021/01/27 00:44:18;;;;;;;2.83;1.10;;;20.60;40.20;;;;;;5003404;28;20105;-46
2021/01/27 00:46:43;;;;;;;1.50;0.98;;;20.60;40.20;;;;;;5009201;28;20095;-45
2021/01/27 00:49:09;;;;;;;2.22;1.00;;;20.60;40.20;;;;;;5006079;28;20030;-48
2021/01/27 00:51:35;;;;;;;2.15;1.10;;;20.60;40.20;;;;;;4997519;28;20129;-46
2021/01/27 00:54:00;;;;;;;1.42;0.90;;;20.60;40.20;;;;;;5009591;28;20090;-50
2021/01/27 00:56:26;;;;;;;1.40;1.10;;;20.60;40.20;;;;;;5010611;28;20420;-46
2021/01/27 00:58:52;;;;;;;2.15;0.90;;;20.60;40.20;;;;;;5002050;28;20037;-48
2021/01/27 01:01:17;;;;;;;1.95;0.90;;;20.60;40.20;;;;;;5010122;28;20116;-49
2021/01/27 01:03:43;;;;;;;1.30;0.90;;;20.60;40.10;;;;;;5006701;28;20038;-48
2021/01/27 01:06:09;;;;;;;1.98;0.93;;;20.60;40.10;;;;;;4990455;28;20446;-48
2021/01/27 01:08:35;;;;;;;1.80;1.20;;;20.60;40.10;;;;;;5009767;28;20504;-48
2021/01/27 01:11:00;;;;;;;1.45;1.10;;;20.60;40.10;;;;;;4996284;28;20083;-56
2021/01/27 01:13:29;;;;;;;1.35;1.05;;;20.60;40.00;;;;;;4995144;28;20489;-46
2021/01/27 01:15:55;;;;;;;2.17;0.98;;;20.60;40.00;;;;;;4994336;28;20075;-52
2021/01/27 01:18:21;;;;;;;1.83;1.08;;;20.60;40.00;;;;;;5008944;28;20082;-49
2021/01/27 01:20:47;;;;;;;3.42;1.50;;;20.60;39.80;;;;;;5000684;28;20026;-46
2021/01/27 01:23:13;;;;;;;3.63;1.20;;;20.60;39.80;;;;;;4991003;28;20430;-47
2021/01/27 01:25:39;;;;;;;1.60;0.95;;;20.60;39.90;;;;;;4990774;28;20038;-46
2021/01/27 01:28:06;;;;;;;2.83;1.05;;;20.60;39.80;;;;;;5004070;28;20042;-47
2021/01/27 01:30:40;;;;;;;0.98;0.80;;;20.60;39.80;;;;;;4996117;28;20042;-46
2021/01/27 01:33:19;;;;;;;1.48;0.85;;;20.60;39.90;;;;;;4994817;28;20079;-45
2021/01/27 01:35:45;;;;;;;1.70;1.17;;;20.60;39.80;;;;;;5008300;28;20474;-46
2021/01/27 01:38:12;;;;;;;1.52;0.95;;;20.60;39.80;;;;;;5009069;28;20060;-49
2021/01/27 01:40:50;;;;;;;1.05;0.95;;;20.60;39.80;;;;;;4995739;28;20096;-48
2021/01/27 01:43:23;;;;;;;1.40;0.80;;;20.60;39.90;;;;;;4994488;28;20034;-46
2021/01/27 01:45:51;;;;;;;1.35;0.90;;;20.60;39.90;;;;;;4997453;28;20030;-46
2021/01/27 01:48:41;;;;;;;1.65;0.95;;;20.60;39.80;;;;;;5008758;28;20061;-47
2021/01/27 01:51:16;;;;;;;1.63;1.10;;;20.60;39.80;;;;;;5000632;28;20041;-47
2021/01/27 01:53:42;;;;;;;2.35;0.93;;;20.60;39.80;;;;;;4988369;28;20052;-45
2021/01/27 01:56:10;;;;;;;1.48;0.85;;;20.60;39.80;;;;;;5008591;28;20038;-45
2021/01/27 01:58:38;;;;;;;2.30;1.25;;;20.60;39.90;;;;;;4998522;28;20464;-46
2021/01/27 02:01:05;;;;;;;1.85;0.93;;;20.60;39.80;;;;;;5002771;28;20046;-46
2021/01/27 02:03:34;;;;;;;1.30;0.90;;;20.60;39.80;;;;;;4993707;28;20027;-51
2021/01/27 02:06:02;;;;;;;1.70;0.90;;;20.60;39.80;;;;;;4982203;28;20477;-55
2021/01/27 02:08:29;;;;;;;1.90;1.13;;;20.60;39.80;;;;;;4990233;28;20054;-48
2021/01/27 02:10:55;;;;;;;2.05;0.90;;;20.60;39.80;;;;;;4999812;28;20065;-45
2021/01/27 02:13:47;;;;;;;1.48;0.80;;;20.60;39.70;;;;;;5008293;28;20051;-45
2021/01/27 02:16:36;;;;;;;3.15;1.73;;;20.60;39.80;;;;;;4992560;28;20026;-46
2021/01/27 02:19:10;;;;;;;3.30;1.00;;;20.60;39.80;;;;;;5008555;28;20061;-54
2021/01/27 02:22:15;;;;;;;2.03;0.95;;;20.60;39.80;;;;;;4997323;28;20126;-47
2021/01/27 02:25:14;;;;;;;1.38;0.93;;;20.60;39.80;;;;;;4987663;28;20034;-46
2021/01/27 02:27:54;;;;;;;1.60;0.80;;;20.60;39.70;;;;;;4988465;28;20030;-49
2021/01/27 02:30:35;;;;;;;1.30;1.00;;;20.60;39.70;;;;;;5003184;28;20034;-47
2021/01/27 02:33:20;;;;;;;1.90;0.93;;;20.60;39.70;;;;;;4996526;28;20098;-55
2021/01/27 02:36:00;;;;;;;1.23;0.90;;;20.70;39.80;;;;;;5000694;28;20034;-47
2021/01/27 02:38:33;;;;;;;1.58;0.93;;;20.60;39.60;;;;;;5008499;28;20029;-51
2021/01/27 02:41:23;;;;;;;1.85;0.90;;;20.60;39.60;;;;;;5001969;28;20096;-56
2021/01/27 02:43:54;;;;;;;1.60;0.95;;;20.60;39.60;;;;;;4982746;28;20534;-50
2021/01/27 02:46:51;;;;;;;1.30;0.95;;;20.60;39.70;;;;;;4996396;28;20033;-48
2021/01/27 02:49:17;;;;;;;1.05;0.80;;;20.70;39.70;;;;;;4989469;28;20042;-48
2021/01/27 02:52:04;;;;;;;1.77;1.00;;;20.70;39.70;;;;;;4989691;28;20050;-49
2021/01/27 02:55:02;;;;;;;1.13;0.80;;;20.60;39.60;;;;;;5001933;28;20030;-45
2021/01/27 02:57:34;;;;;;;2.67;1.05;;;20.70;39.70;;;;;;5005874;28;20022;-46
2021/01/27 03:00:07;;;;;;;;;;;20.60;39.60;;;;;;4990901;28;20463;-54
2021/01/27 03:02:44;;;;;;;0.90;0.80;;;20.60;39.60;;;;;;5007251;28;20004;-46
2021/01/27 03:05:26;;;;;;;1.10;0.80;;;20.70;39.60;;;;;;5007942;28;20355;-49
2021/01/27 03:07:57;;;;;;;1.80;1.00;;;20.60;39.60;;;;;;4990068;28;20122;-47
2021/01/27 03:10:49;;;;;;;2.60;1.08;;;20.70;39.60;;;;;;4988737;28;20270;-46
2021/01/27 03:13:14;;;;;;;1.08;0.88;;;20.60;39.50;;;;;;4999763;28;20037;-46
2021/01/27 03:15:40;;;;;;;1.77;1.00;;;20.70;39.60;;;;;;4994066;28;20479;-45
2021/01/27 03:18:13;;;;;;;1.77;1.00;;;20.70;39.60;;;;;;4989410;28;20037;-45
2021/01/27 03:20:41;;;;;;;1.70;1.10;;;20.70;39.60;;;;;;4995322;28;20454;-45
2021/01/27 03:23:32;;;;;;;1.90;1.00;;;20.70;39.60;;;;;;4988598;28;20094;-50
2021/01/27 03:26:07;;;;;;;1.50;0.90;;;20.70;39.60;;;;;;5003525;28;20087;-46
2021/01/27 03:28:41;;;;;;;3.08;0.93;;;20.70;39.60;;;;;;5007920;28;20419;-47
2021/01/27 03:31:06;;;;;;;2.10;1.10;;;20.70;39.60;;;;;;5007171;28;20045;-45
2021/01/27 03:33:39;;;;;;;2.17;1.00;;;20.70;39.70;;;;;;5006699;28;20026;-45
2021/01/27 03:36:07;;;;;;;1.50;1.00;;;20.70;39.60;;;;;;5007694;28;20076;-55
2021/01/27 03:38:41;;;;;;;1.42;1.17;;;20.70;39.60;;;;;;4992871;28;20162;-53
2021/01/27 03:41:30;;;;;;;1.80;0.90;;;20.70;39.60;;;;;;4999198;28;20059;-46
2021/01/27 03:44:08;;;;;;;1.58;1.10;;;20.70;39.60;;;;;;5001858;28;20478;-51
2021/01/27 03:46:36;;;;;;;1.67;0.98;;;20.70;39.50;;;;;;5011762;28;20109;-46
2021/01/27 03:49:14;;;;;;;1.42;1.00;;;20.70;39.50;;;;;;5003191;28;20026;-55
2021/01/27 03:51:44;;;;;;;1.20;1.10;;;20.70;39.50;;;;;;4986863;28;20038;-48
2021/01/27 03:54:18;;;;;;;2.20;0.88;;;20.70;39.50;;;;;;4999806;28;20034;-46
2021/01/27 03:56:59;;;;;;;1.48;1.13;;;20.70;39.50;;;;;;5008836;28;20045;-45
2021/01/27 03:59:25;;;;;;;1.83;0.90;;;20.70;39.50;;;;;;5001121;28;20021;-48
2021/01/27 04:01:53;;;;;;;1.48;1.10;;;20.70;39.50;;;;;;5002760;28;20426;-49
2021/01/27 04:04:21;;;;;;;1.67;1.10;;;20.70;39.50;;;;;;5010885;28;20026;-49
2021/01/27 04:06:47;;;;;;;2.65;0.80;;;20.70;39.60;;;;;;4999331;28;20383;-49
2021/01/27 04:09:13;;;;;;;1.42;0.80;;;20.70;39.50;;;;;;5005438;28;20090;-51
2021/01/27 04:11:39;;;;;;;1.88;0.75;;;20.70;39.50;;;;;;5010637;28;20041;-46
2021/01/27 04:14:06;;;;;;;1.45;1.05;;;20.70;39.50;;;;;;5007338;28;20034;-55
2021/01/27 04:16:32;;;;;;;1.42;0.98;;;20.70;39.50;;;;;;4992161;28;20042;-46
2021/01/27 04:19:04;;;;;;;0.80;0.80;;;20.70;39.50;;;;;;4993168;28;20369;-48
2021/01/27 04:21:30;;;;;;;0.82;0.70;;;20.70;39.50;;;;;;5004902;28;20079;-48
2021/01/27 04:23:55;;;;;;;2.90;1.00;;;20.70;39.50;;;;;;5010398;28;20033;-47
2021/01/27 04:26:21;;;;;;;1.80;1.20;;;20.70;39.50;;;;;;4996732;28;20120;-46
2021/01/27 04:28:51;;;;;;;0.90;0.80;;;20.70;39.50;;;;;;4985435;28;20118;-49
2021/01/27 04:31:17;;;;;;;1.88;1.10;;;20.70;39.40;;;;;;4999820;28;20046;-48
2021/01/27 04:33:44;;;;;;;1.80;0.90;;;20.70;39.50;;;;;;5006196;28;20037;-48
2021/01/27 04:36:09;;;;;;;0.68;0.65;;;20.70;39.50;;;;;;5002239;28;20113;-49
2021/01/27 04:38:35;;;;;;;1.70;0.90;;;20.70;39.40;;;;;;5007977;28;20102;-49
2021/01/27 04:41:02;;;;;;;1.60;1.10;;;20.70;39.40;;;;;;4988368;28;20022;-48
2021/01/27 04:43:43;;;;;;;1.48;1.02;;;20.70;39.40;;;;;;5000177;28;20026;-48
2021/01/27 04:46:29;;;;;;;1.17;0.73;;;20.70;39.40;;;;;;5004795;28;20378;-47
2021/01/27 04:49:15;;;;;;;0.90;0.80;;;20.70;39.30;;;;;;5009181;28;20056;-46
2021/01/27 04:51:59;;;;;;;1.40;1.10;;;20.70;39.40;;;;;;5001988;28;20034;-48
2021/01/27 04:54:55;;;;;;;1.23;0.90;;;20.70;39.40;;;;;;4996335;28;20101;-49
2021/01/27 04:57:39;;;;;;;1.10;0.90;;;20.70;39.30;;;;;;5004496;28;20026;-45
2021/01/27 05:00:09;;;;;;;1.00;0.70;;;20.80;39.40;;;;;;4995435;28;20037;-55
2021/01/27 05:02:49;;;;;;;1.58;0.95;;;20.70;39.30;;;;;;5009864;28;20146;-47
2021/01/27 05:05:23;;;;;;;1.70;0.80;;;20.80;39.40;;;;;;4990850;28;20042;-45
2021/01/27 05:08:15;;;;;;;1.13;1.00;;;20.70;39.30;;;;;;4991709;28;20117;-45
2021/01/27 05:10:49;;;;;;;1.20;0.93;;;20.70;39.30;;;;;;5004311;28;20129;-45
2021/01/27 05:13:39;;;;;;;1.35;0.90;;;20.80;39.40;;;;;;5008448;28;20386;-47
2021/01/27 05:16:14;;;;;;;1.08;0.90;;;20.70;39.30;;;;;;5003087;28;20042;-54
2021/01/27 05:18:41;;;;;;;1.83;0.80;;;20.80;39.40;;;;;;4984051;28;20026;-45
2021/01/27 05:21:31;;;;;;;1.55;0.90;;;20.70;39.30;;;;;;4990797;28;20348;-55
2021/01/27 05:23:58;;;;;;;1.23;0.88;;;20.70;39.30;;;;;;4995974;28;20022;-51
2021/01/27 05:26:33;;;;;;;1.23;0.77;;;20.80;39.40;;;;;;5001159;28;20454;-46
2021/01/27 05:29:05;;;;;;;2.55;1.10;;;20.70;39.30;;;;;;4998120;28;20117;-46
2021/01/27 05:32:00;;;;;;;1.35;0.90;;;20.70;39.30;;;;;;4996620;28;20095;-49
2021/01/27 05:34:39;;;;;;;1.17;0.93;;;20.80;39.40;;;;;;4995590;28;20168;-48
2021/01/27 05:37:09;;;;;;;1.52;1.10;;;20.70;39.30;;;;;;5009681;28;20037;-47
2021/01/27 05:39:36;;;;;;;1.77;1.10;;;20.80;39.30;;;;;;5006271;28;20031;-48
2021/01/27 05:42:32;;;;;;;2.10;1.02;;;20.70;39.30;;;;;;5007220;28;20034;-51
2021/01/27 05:45:24;;;;;;;0.85;0.80;;;20.70;39.30;;;;;;5009791;28;20497;-50
2021/01/27 05:47:49;;;;;;;1.65;1.00;;;20.70;39.30;;;;;;5008258;28;20029;-51
2021/01/27 05:50:21;;;;;;;1.65;1.00;;;20.80;39.30;;;;;;5008023;28;20390;-47
2021/01/27 05:52:47;;;;;;;2.40;0.93;;;20.80;39.90;;;;;;5009591;28;20033;-45
2021/01/27 05:55:13;;;;;;;2.75;1.17;;;20.70;39.20;;;;;;4993126;28;20030;-45
2021/01/27 05:57:39;;;;;;;2.38;1.20;;;20.70;39.30;;;;;;4993125;28;20398;-46
2021/01/27 06:00:14;;;;;;;1.73;1.00;;;20.70;39.30;;;;;;4997885;28;20038;-47
2021/01/27 06:02:42;;;;;;;1.33;0.88;;;20.70;39.20;;;;;;4999785;28;20050;-45
2021/01/27 06:05:15;;;;;;;1.00;0.80;;;20.70;39.20;;;;;;4982528;28;20033;-55
2021/01/27 06:07:41;;;;;;;1.50;0.75;;;20.80;39.20;;;;;;4992708;28;20030;-45
2021/01/27 06:10:25;;;;;;;1.55;0.90;;;20.80;39.20;;;;;;4982667;28;20026;-56
2021/01/27 06:12:51;;;;;;;2.00;1.33;;;20.80;39.30;;;;;;5006429;28;20509;-46
2021/01/27 06:15:30;;;;;;;2.03;1.35;;;20.80;39.20;;;;;;5008326;28;20025;-45
2021/01/27 06:17:56;;;;;;;0.80;0.80;;;20.80;39.20;;;;;;5001029;28;20034;-50
2021/01/27 06:20:34;;;;;;;1.85;1.17;;;20.80;39.90;;;;;;4981420;28;20406;-47
2021/01/27 06:23:15;;;;;;;2.50;0.90;;;20.80;39.20;;;;;;4990051;28;20023;-46
2021/01/27 06:26:05;;;;;;;1.15;0.82;;;20.80;39.20;;;;;;4983981;28;20471;-45
2021/01/27 06:28:45;;;;;;;1.95;0.80;;;20.80;39.20;;;;;;4992894;28;20545;-46
2021/01/27 06:31:35;;;;;;;1.13;1.00;;;20.80;39.10;;;;;;5006606;28;20501;-54
2021/01/27 06:34:22;;;;;;;1.38;0.98;;;20.80;39.10;;;;;;4995430;28;20099;-46
2021/01/27 06:37:35;;;;;;;2.30;1.00;;;20.80;39.10;;;;;;4983684;28;20066;-45
2021/01/27 06:40:27;;;;;;;1.25;0.95;;;20.80;39.10;;;;;;4986876;28;20030;-47
2021/01/27 06:42:56;;;;;;;;;;;20.80;39.20;;;;;;5000393;28;20042;-45
2021/01/27 06:45:52;;;;;;;1.55;0.82;;;20.80;39.20;;;;;;5008255;28;19936;-46
2021/01/27 06:48:21;;;;;;;1.73;1.00;;;20.80;39.10;;;;;;5006711;28;20387;-47
2021/01/27 06:51:12;;;;;;;1.30;0.90;;;20.80;39.10;;;;;;5008802;28;20127;-46
2021/01/27 06:53:58;;;;;;;1.20;1.00;;;20.80;39.10;;;;;;5009009;28;20486;-45
2021/01/27 06:56:29;;;;;;;1.42;0.82;;;20.80;39.20;;;;;;4989050;28;20022;-45
2021/01/27 06:59:28;;;;;;;1.42;0.90;;;20.80;39.10;;;;;;4996372;28;20038;-47
2021/01/27 07:02:18;;;;;;;0.95;0.70;;;20.80;39.10;;;;;;4996603;28;20038;-49
2021/01/27 07:05:01;;;;;;;1.15;0.90;;;20.80;39.10;;;;;;4993403;28;20026;-47
2021/01/27 07:07:45;;;;;;;1.02;0.90;;;20.80;39.10;;;;;;5004021;28;20033;-50
2021/01/27 07:10:27;;;;;;;1.88;0.90;;;20.70;39.10;;;;;;4989246;28;20026;-55
2021/01/27 07:13:17;;;;;;;1.30;0.80;;;20.80;39.10;;;;;;4993079;28;20483;-48
2021/01/27 07:16:07;;;;;;;1.40;0.90;;;20.80;39.10;;;;;;5008076;28;20038;-49
2021/01/27 07:18:58;;;;;;;1.92;0.82;;;20.80;39.10;;;;;;5010859;28;20036;-54
2021/01/27 07:22:01;;;;;;;1.23;0.95;;;20.80;39.10;;;;;;4998515;28;20046;-47
2021/01/27 07:24:54;;;;;;;1.23;0.90;;;20.80;39.00;;;;;;4998726;28;20379;-47
2021/01/27 07:27:22;;;;;;;1.15;0.68;;;20.80;39.10;;;;;;5005938;28;20035;-48
2021/01/27 07:29:52;;;;;;;1.77;0.90;;;20.80;39.00;;;;;;5008772;28;20042;-46
2021/01/27 07:32:22;;;;;;;1.40;0.93;;;20.80;39.10;;;;;;5010783;28;20455;-47
2021/01/27 07:35:06;;;;;;;2.10;0.90;;;20.80;39.00;;;;;;4996623;28;20022;-47
2021/01/27 07:37:41;;;;;;;1.73;0.80;;;20.80;39.00;;;;;;4991715;28;20171;-47
2021/01/27 07:40:19;;;;;;;1.58;0.98;;;20.80;39.00;;;;;;4993678;28;20416;-46
2021/01/27 07:43:04;;;;;;;1.60;0.88;;;20.80;39.00;;;;;;4998260;28;20034;-46
2021/01/27 07:45:38;;;;;;;1.83;1.38;;;20.80;39.00;;;;;;4994092;28;20030;-46
2021/01/27 07:48:18;;;;;;;1.95;1.00;;;20.80;39.00;;;;;;5011701;28;20466;-48
2021/01/27 07:51:16;;;;;;;1.65;1.00;;;20.80;39.00;;;;;;5010172;28;20034;-45
2021/01/27 07:53:57;;;;;;;1.27;0.73;;;20.80;39.00;;;;;;5010556;28;20050;-45
2021/01/27 07:56:29;;;;;;;1.38;0.93;;;20.80;39.00;;;;;;4995748;28;20113;-45
2021/01/27 07:59:21;;;;;;;1.38;1.00;;;20.80;39.00;;;;;;5008804;28;20030;-51
2021/01/27 08:01:51;;;;;;;1.25;0.90;;;20.80;39.00;;;;;;5002221;28;20073;-48
2021/01/27 08:04:43;;;;;;;1.70;0.80;;;20.80;38.90;;;;;;4995514;28;20075;-46
2021/01/27 08:07:18;;;;;;;0.70;0.60;;;20.80;39.00;;;;;;5008608;28;20034;-48
2021/01/27 08:09:48;;;;;;;1.10;0.80;;;20.80;39.00;;;;;;4992488;28;20034;-48
2021/01/27 08:12:28;;;;;;;0.85;0.73;;;20.80;39.00;;;;;;4995974;28;20042;-55
2021/01/27 08:15:11;;;;;;;1.40;0.80;;;20.80;39.00;;;;;;4989577;28;20499;-56
2021/01/27 08:18:00;;;;;;;2.30;0.98;;;20.80;39.00;;;;;;4984767;28;20054;-51
2021/01/27 08:20:31;;;;;;;1.10;0.80;;;20.80;39.00;;;;;;4998906;28;20040;-49
2021/01/27 08:23:03;;;;;;;1.27;0.90;;;20.80;39.10;;;;;;4980594;28;20100;-48
2021/01/27 08:25:47;;;;;;;1.55;0.82;;;20.80;39.00;;;;;;5005336;28;20035;-46
2021/01/27 08:28:37;;;;;;;0.95;0.73;;;20.80;39.00;;;;;;4991635;28;20034;-57
2021/01/27 08:31:09;;;;;;;1.45;0.80;;;20.80;39.00;;;;;;5009418;28;20115;-49
2021/01/27 08:33:47;;;;;;;1.23;0.90;;;20.80;39.10;;;;;;4989302;28;20486;-46
2021/01/27 08:36:18;;;;;;;1.08;0.70;;;20.80;39.00;;;;;;4983465;28;20101;-57
2021/01/27 08:38:56;;;;;;;1.75;0.90;;;20.80;39.10;;;;;;4999951;28;20090;-46
2021/01/27 08:41:51;;;;;;;1.85;0.77;;;20.80;39.10;;;;;;4996677;28;20041;-44
2021/01/27 08:44:20;;;;;;;3.22;0.80;;;20.80;39.20;;;;;;5000131;28;20111;-54
2021/01/27 08:47:20;;;;;;;0.98;0.70;;;20.80;39.20;;;;;;4997900;28;20793;-47
2021/01/27 08:49:59;;;;;;;0.80;0.60;;;20.80;39.40;;;;;;4995436;28;20539;-46
2021/01/27 08:52:25;;;;;;;2.58;0.60;;;20.90;39.50;;;;;;5001525;28;20053;-46
2021/01/27 08:54:52;;;;;;;1.60;0.90;;;20.90;39.70;;;;;;5010700;28;20482;-48
2021/01/27 08:57:22;;;;;;;4.82;0.90;;;20.80;39.70;;;;;;4995027;28;20027;-55
2021/01/27 09:00:12;;;;;;;0.88;0.63;;;20.80;39.70;;;;;;4992417;28;20034;-56
2021/01/27 09:03:02;;;;;;;1.00;0.68;;;20.80;39.80;;;;;;5002408;28;20092;-49
2021/01/27 09:05:27;;;;;;;1.58;0.80;;;20.80;39.80;;;;;;4990524;28;20031;-48
2021/01/27 09:07:56;;;;;;;1.88;0.85;;;20.80;39.80;;;;;;5003499;28;20374;-48
2021/01/27 09:10:29;;;;;;;3.65;0.70;;;20.80;39.80;;;;;;5008099;28;20030;-46
2021/01/27 09:12:55;;;;;;;0.93;0.70;;;20.80;39.80;;;;;;4985736;28;20053;-49
2021/01/27 09:15:32;;;;;;;2.03;0.68;;;20.80;39.80;;;;;;4991870;28;20030;-47
2021/01/27 09:17:59;;;;;;;1.77;0.90;;;20.80;39.80;;;;;;4994062;28;20037;-49
2021/01/27 09:20:30;;;;;;;3.13;0.60;;;20.80;39.90;;;;;;5008250;28;20087;-45
2021/01/27 09:23:04;;;;;;;2.45;0.80;;;20.80;39.80;;;;;;4996276;28;20031;-47
2021/01/27 09:25:41;;;;;;;3.50;1.45;;;20.90;40.00;;;;;;4998306;28;20038;-46
2021/01/27 09:28:09;;;;;;;4.68;1.02;;;21.00;40.20;;;;;;4996563;28;20090;-44
2021/01/27 09:30:36;;;;;;;1.70;0.70;;;21.10;40.30;;;;;;4994869;28;20109;-49
2021/01/27 09:33:32;;;;;;;1.98;1.02;;;21.10;40.00;;;;;;5007183;28;20033;-45
2021/01/27 09:36:15;;;;;;;2.28;0.70;;;21.20;40.40;;;;;;5003057;28;20102;-44
2021/01/27 09:38:41;;;;;;;2.47;0.88;;;21.30;40.60;;;;;;4990643;28;20196;-46
2021/01/27 09:41:14;;;;;;;1.52;0.70;;;21.30;40.50;;;;;;4996975;28;20052;-49
2021/01/27 09:43:44;;;;;;;1.88;0.70;;;21.30;40.40;;;;;;4991151;28;20042;-45
2021/01/27 09:46:37;;;;;;;2.90;0.98;;;21.30;40.50;;;;;;4997514;28;20038;-46
2021/01/27 09:49:06;;;;;;;1.55;0.60;;;21.40;40.50;;;;;;4992058;28;20045;-47
2021/01/27 09:51:33;;;;;;;2.05;0.90;;;21.40;40.50;;;;;;5004453;28;20089;-44
2021/01/27 09:54:03;;;;;;;2.50;0.77;;;21.50;40.50;;;;;;4994290;28;20049;-55
2021/01/27 09:56:30;;;;;;;2.05;0.85;;;21.50;40.50;;;;;;5007438;28;20026;-47
2021/01/27 09:59:00;;;;;;;1.25;0.70;;;21.60;40.40;;;;;;4994769;28;20069;-47
2021/01/27 10:01:31;;;;;;;2.25;0.90;;;21.60;40.30;;;;;;5003101;28;20121;-46
2021/01/27 10:04:30;;;;;;;1.95;0.70;;;21.60;40.30;;;;;;4987237;28;20034;-49
2021/01/27 10:07:07;;;;;;;1.05;0.70;;;21.60;40.20;;;;;;4986648;28;20445;-50
2021/01/27 10:09:42;;;;;;;1.38;0.57;;;21.60;40.20;;;;;;5005892;28;20086;-47
2021/01/27 10:12:17;;;;;;;2.70;0.70;;;21.60;40.40;;;;;;4990271;28;20458;-48
2021/01/27 10:14:43;;;;;;;4.00;0.70;;;21.60;40.40;;;;;;5005175;28;20033;-51
2021/01/27 10:17:11;;;;;;;1.90;0.70;;;21.60;40.40;;;;;;4991594;28;20455;-51
2021/01/27 10:19:50;;;;;;;2.78;1.80;;;21.60;40.50;;;;;;5005539;28;20065;-49
2021/01/27 10:22:33;;;;;;;1.70;0.80;;;21.70;40.40;;;;;;5008239;28;20022;-47
2021/01/27 10:25:00;;;;;;;5.28;0.90;;;21.70;40.30;;;;;;4999791;28;20022;-46
2021/01/27 10:27:41;;;;;;;1.30;0.65;;;21.70;40.30;;;;;;4989102;28;20026;-44
2021/01/27 10:30:16;;;;;;;2.05;0.77;;;21.80;40.30;;;;;;4990012;28;20039;-50
2021/01/27 10:32:44;;;;;;;1.25;0.70;;;21.70;40.30;;;;;;4989589;28;20036;-48
2021/01/27 10:35:27;;;;;;;1.90;0.75;;;21.80;40.50;;;;;;4988972;28;20436;-49
2021/01/27 10:38:14;;;;;;;1.88;0.77;;;21.80;40.50;;;;;;5004252;28;20113;-46
2021/01/27 10:41:00;;;;;;;2.17;0.70;;;21.70;40.50;;;;;;5022084;28;20120;-48
2021/01/27 10:43:29;;;;;;;2.53;0.63;;;21.70;40.60;;;;;;5004567;28;20029;-49
2021/01/27 10:45:54;;;;;;;0.70;0.60;;;21.70;40.70;;;;;;5003831;28;20211;-47
2021/01/27 10:48:21;;;;;;;4.53;1.23;;;;;;;;;;4993558;28;20156;-54
2021/01/27 10:50:49;;;;;;;4.20;0.75;;;;;;;;;;4988700;28;20100;-45
2021/01/27 10:53:17;;;;;;;2.03;0.80;;;;;;;;;;5005704;28;20026;-46
2021/01/27 10:55:47;;;;;;;1.60;0.80;;;;;;;;;;5001936;28;20107;-45
2021/01/27 10:58:15;;;;;;;1.63;0.60;;;;;;;;;;4995869;28;20029;-45
2021/01/27 11:00:41;;;;;;;5.55;1.50;;;;;;;;;;4988587;28;20218;-46
2021/01/27 11:03:09;;;;;;;1.38;0.70;;;;;;;;;;4995842;28;20527;-45
2021/01/27 11:05:36;;;;;;;5.85;0.85;;;;;;;;;;5006757;28;20417;-45
2021/01/27 11:08:03;;;;;;;1.67;0.80;;;;;;;;;;4989480;28;20022;-45
2021/01/27 11:10:29;;;;;;;0.57;0.40;;;;;;;;;;4992098;28;20182;-47
2021/01/27 11:12:56;;;;;;;3.13;0.55;;;;;;;;;;4992874;28;20030;-50
2021/01/27 11:15:22;;;;;;;4.15;0.77;;;;;;;;;;4975125;28;20030;-53
2021/01/27 11:17:49;;;;;;;3.15;0.70;;;;;;;;;;4985434;28;20100;-45
2021/01/27 11:20:18;;;;;;;2.30;0.77;;;;;;;;;;4988669;28;20027;-45
2021/01/27 11:22:45;;;;;;;1.58;0.60;;;;;;;;;;4991759;28;20482;-51
2021/01/27 11:25:11;;;;;;;2.58;0.85;;;;;;;;;;4997200;28;20034;-48
2021/01/27 11:27:37;;;;;;;6.32;0.77;;;;;;;;;;4995705;28;20030;-50
2021/01/27 11:30:05;;;;;;;1.15;0.70;;;;;;;;;;4987938;28;20026;-48
2021/01/27 11:32:31;;;;;;;0.90;0.60;;;;;;;;;;4986875;28;20091;-48
2021/01/27 11:34:57;;;;;;;2.50;0.60;;;;;;;;;;4989572;28;20429;-45
2021/01/27 11:37:23;;;;;;;1.65;0.70;;;;;;;;;;5005522;28;20030;-56
2021/01/27 11:39:49;;;;;;;1.48;0.80;;;;;;;;;;4992948;28;20019;-44
2021/01/27 11:42:15;;;;;;;2.75;0.80;;;;;;;;;;4988497;28;20459;-46
2021/01/27 11:44:41;;;;;;;3.00;0.70;;;;;;;;;;4987755;28;20033;-49
2021/01/27 11:47:07;;;;;;;1.35;0.63;;;;;;;;;;4985903;28;20471;-56
2021/01/27 11:49:33;;;;;;;2.55;0.70;;;;;;;;;;4986651;28;20033;-50
2021/01/27 11:52:00;;;;;;;1.85;0.80;;;;;;;;;;4988299;28;20031;-50
2021/01/27 11:54:26;;;;;;;3.95;0.70;;;;;;;;;;4988154;28;20118;-55
2021/01/27 11:56:52;;;;;;;1.38;0.77;;;;;;;;;;5000366;28;20038;-46
2021/01/27 11:59:19;;;;;;;1.67;0.95;;;;;;;;;;5004531;28;20462;-47
2021/01/27 12:01:45;;;;;;;1.80;0.90;;;;;;;;;;5000873;28;20645;-53
2021/01/27 12:04:11;;;;;;;1.58;0.63;;;;;;;;;;4991111;28;20033;-48
2021/01/27 12:06:37;;;;;;;3.13;1.05;;;;;;;;;;4987298;28;20141;-51
2021/01/27 12:09:03;;;;;;;1.92;0.70;;;;;;;;;;4992419;28;20118;-46
2021/01/27 12:11:29;;;;;;;2.45;0.85;;;;;;;;;;4998074;28;20450;-48
2021/01/27 12:13:55;;;;;;;1.23;0.70;;;;;;;;;;4999540;28;20108;-46
2021/01/27 12:16:21;;;;;;;4.00;0.68;;;;;;;;;;5010757;28;20033;-47
2021/01/27 12:18:47;;;;;;;3.70;1.20;;;;;;;;;;5009673;28;20429;-46
2021/01/27 12:21:13;;;;;;;3.08;1.23;;;;;;;;;;5007005;28;20046;-50
2021/01/27 12:23:39;;;;;;;3.30;0.82;;;;;;;;;;4992208;28;20022;-46
2021/01/27 12:26:06;;;;;;;2.15;0.65;;;;;;;;;;4990872;28;20402;-57
2021/01/27 12:28:32;;;;;;;4.43;0.80;;;;;;;;;;4987376;28;20014;-53
2021/01/27 12:30:58;;;;;;;2.22;0.90;;;;;;;;;;4992266;28;20038;-47
2021/01/27 12:33:25;;;;;;;2.70;1.38;;;;;;;;;;5001658;28;20545;-50
2021/01/27 12:35:52;;;;;;;4.38;1.10;;;;;;;;;;4991186;28;20029;-47
2021/01/27 12:38:18;;;;;;;4.10;1.45;;;;;;;;;;4991768;28;20022;-53
2021/01/27 12:40:44;;;;;;;3.80;1.20;;;;;;;;;;5000891;28;20030;-47
2021/01/27 12:43:11;;;;;;;2.88;1.10;;;;;;;;;;4974899;28;20383;-47
2021/01/27 12:45:37;;;;;;;1.48;0.98;;;;;;;;;;4990833;28;20027;-47
2021/01/27 12:48:03;;;;;;;2.10;1.10;;;;;;;;;;4992487;28;20030;-49
2021/01/27 12:50:29;;;;;;;4.65;1.13;;;;;;;;;;5005215;28;20040;-47
2021/01/27 12:52:55;;;;;;;2.17;1.30;;;;;;;;;;5010582;28;20186;-47
2021/01/27 12:55:21;;;;;;;4.18;0.85;;;;;;;;;;5010744;28;20030;-45
2021/01/27 12:57:47;;;;;;;4.43;1.50;;;;;;;;;;5000362;28;20109;-47
2021/01/27 13:00:19;;;;;;;4.88;1.02;;;;;;;;;;4987972;28;20026;-49
2021/01/27 13:02:46;;;;;;;5.00;1.20;;;;;;;;;;4986302;28;20585;-48
2021/01/27 13:05:12;;;;;;;4.43;0.80;;;;;;;;;;4995687;28;20027;-47
2021/01/27 13:07:38;;;;;;;6.38;1.20;;;;;;;;;;4989674;28;20490;-48
2021/01/27 13:10:08;;;;;;;2.80;0.70;;;;;;;;;;5008891;28;20052;-48
2021/01/27 13:12:34;;;;;;;4.68;1.25;;;;;;;;;;4998651;28;20146;-45
2021/01/27 13:15:00;;;;;;;2.00;0.80;;;;;;;;;;4996732;28;20036;-48
2021/01/27 13:17:26;;;;;;;2.03;0.70;;;;;;;;;;5002322;28;20022;-56
2021/01/27 13:19:52;;;;;;;3.17;1.20;;;;;;;;;;5000981;28;20022;-53
2021/01/27 13:22:18;;;;;;;3.45;0.88;;;;;;;;;;4993483;28;20567;-46
2021/01/27 13:24:44;;;;;;;5.35;0.93;;;;;;;;;;4988206;28;20038;-47
2021/01/27 13:27:10;;;;;;;5.82;0.88;;;;;;;;;;4991238;28;20026;-44
2021/01/27 13:29:37;;;;;;;1.83;0.70;;;;;;;;;;4988831;28;20030;-51
2021/01/27 13:32:03;;;;;;;9.63;1.00;;;;;;;;;;4989272;28;20038;-54
2021/01/27 13:34:29;;;;;;;3.78;1.30;;;;;;;;;;5003490;28;20045;-53
2021/01/27 13:36:55;;;;;;;2.55;0.90;;;;;;;;;;5009241;28;20029;-47
2021/01/27 13:39:21;;;;;;;5.78;0.80;;;;;;;;;;5008450;28;20034;-46
2021/01/27 13:41:47;;;;;;;2.58;1.08;;;;;;;;;;4999053;28;20264;-45